createdAt,value
2022-09-26T00:00:58.882Z,8.68
2022-09-26T00:01:58.884Z,8.58
2022-09-26T00:02:58.840Z,8.58
2022-09-26T00:03:58.809Z,8.57
2022-09-26T00:04:58.793Z,8.45
2022-09-26T00:05:58.783Z,8.48
2022-09-26T00:06:58.798Z,8.33
2022-09-26T00:07:58.776Z,8.36
2022-09-26T00:08:58.767Z,8.48
2022-09-26T00:09:58.745Z,8.33
2022-09-26T00:10:58.733Z,8.35
2022-09-26T00:11:58.755Z,8.35
2022-09-26T00:12:58.734Z,8.28
2022-09-26T00:13:58.702Z,8.26
2022-09-26T00:14:58.700Z,8.14
2022-09-26T00:15:58.689Z,8.12
2022-09-26T00:16:58.775Z,8.30
2022-09-26T00:17:58.688Z,8.20
2022-09-26T00:18:58.663Z,8.21
2022-09-26T00:19:58.702Z,8.11
2022-09-26T00:20:58.633Z,8.22
2022-09-26T00:21:58.640Z,8.17
2022-09-26T00:22:58.638Z,8.04
2022-09-26T00:23:58.623Z,8.12
2022-09-26T00:24:58.597Z,8.08
2022-09-26T00:25:58.593Z,8.00
2022-09-26T00:26:58.588Z,8.11
2022-09-26T00:27:58.624Z,7.93
2022-09-26T00:28:58.556Z,7.96
2022-09-26T00:29:58.557Z,8.11
2022-09-26T00:30:58.569Z,8.08
2022-09-26T00:31:58.564Z,8.02
2022-09-26T00:32:58.553Z,8.00
2022-09-26T00:33:58.518Z,8.02
2022-09-26T00:34:58.507Z,8.00
2022-09-26T00:35:58.502Z,7.99
2022-09-26T00:36:58.485Z,7.96
2022-09-26T00:37:58.496Z,8.00
2022-09-26T00:38:58.474Z,8.03
2022-09-26T00:39:58.536Z,7.94
2022-09-26T00:40:58.584Z,7.94
2022-09-26T00:41:58.440Z,7.94
2022-09-26T00:42:58.468Z,7.93
2022-09-26T00:43:58.421Z,7.90
2022-09-26T00:44:58.407Z,7.87
2022-09-26T00:45:58.455Z,7.89
2022-09-26T00:46:58.388Z,7.92
2022-09-26T00:47:58.395Z,7.90
2022-09-26T00:48:58.370Z,7.90
2022-09-26T00:49:58.361Z,7.89
2022-09-26T00:50:58.349Z,7.82
2022-09-26T00:51:58.336Z,7.84
2022-09-26T00:52:58.347Z,7.87
2022-09-26T00:53:58.328Z,7.81
2022-09-26T00:54:58.301Z,7.87
2022-09-26T00:55:58.307Z,7.77
2022-09-26T00:56:58.277Z,7.84
2022-09-26T00:57:58.295Z,7.78
2022-09-26T00:58:58.257Z,7.84
2022-09-26T00:59:58.246Z,7.81
2022-09-26T01:00:58.347Z,7.90
2022-09-26T01:01:58.327Z,7.85
2022-09-26T01:02:58.234Z,7.89
2022-09-26T01:03:58.200Z,7.84
2022-09-26T01:04:58.199Z,7.84
2022-09-26T01:05:58.181Z,7.84
2022-09-26T01:06:58.173Z,7.84
2022-09-26T01:07:58.173Z,7.90
2022-09-26T01:08:58.155Z,7.87
2022-09-26T01:09:58.181Z,7.90
2022-09-26T01:10:58.136Z,7.90
2022-09-26T01:11:58.119Z,7.94
2022-09-26T01:12:58.136Z,7.93
2022-09-26T01:13:58.089Z,7.97
2022-09-26T01:14:58.097Z,7.84
2022-09-26T01:15:58.077Z,7.90
2022-09-26T01:16:58.101Z,7.93
2022-09-26T01:17:58.091Z,7.96
2022-09-26T01:18:58.050Z,7.96
2022-09-26T01:19:58.039Z,7.94
2022-09-26T01:20:58.037Z,7.89
2022-09-26T01:21:58.032Z,7.89
2022-09-26T01:22:58.008Z,7.94
2022-09-26T01:23:58.004Z,7.87
2022-09-26T01:24:57.984Z,7.94
2022-09-26T01:25:57.973Z,7.99
2022-09-26T01:26:57.964Z,7.99
2022-09-26T01:27:58.024Z,7.92
2022-09-26T01:28:57.959Z,7.93
2022-09-26T01:29:57.943Z,7.90
2022-09-26T01:30:57.966Z,7.99
2022-09-26T01:31:57.900Z,8.00
2022-09-26T01:32:57.900Z,7.96
2022-09-26T01:33:57.911Z,7.92
2022-09-26T01:34:57.885Z,8.00
2022-09-26T01:35:57.866Z,7.97
2022-09-26T01:36:57.853Z,7.99
2022-09-26T01:37:57.850Z,7.94
2022-09-26T01:38:57.860Z,7.94
2022-09-26T01:39:57.828Z,7.94
2022-09-26T01:40:57.865Z,7.96
2022-09-26T01:41:57.820Z,7.89
2022-09-26T01:42:57.796Z,8.04
2022-09-26T01:43:57.804Z,8.03
2022-09-26T01:44:57.771Z,7.93
2022-09-26T01:45:57.836Z,7.92
2022-09-26T01:46:57.753Z,7.93
2022-09-26T01:47:57.741Z,7.75
2022-09-26T01:48:57.754Z,7.84
2022-09-26T01:49:57.730Z,7.79
2022-09-26T01:50:57.708Z,7.78
2022-09-26T01:51:57.702Z,7.81
2022-09-26T01:52:57.686Z,7.75
2022-09-26T01:53:57.698Z,7.81
2022-09-26T01:54:57.671Z,7.71
2022-09-26T01:55:57.654Z,7.77
2022-09-26T01:56:57.643Z,7.75
2022-09-26T01:57:57.679Z,7.74
2022-09-26T01:58:57.642Z,7.71
2022-09-26T01:59:57.606Z,7.71
2022-09-26T02:00:57.641Z,7.77
2022-09-26T02:01:57.628Z,7.71
2022-09-26T02:02:57.587Z,7.72
2022-09-26T02:03:57.600Z,7.69
2022-09-26T02:04:57.560Z,7.66
2022-09-26T02:05:57.559Z,7.67
2022-09-26T02:06:57.564Z,7.72
2022-09-26T02:07:57.537Z,7.71
2022-09-26T02:08:57.532Z,7.60
2022-09-26T02:09:57.508Z,7.75
2022-09-26T02:10:57.494Z,7.71
2022-09-26T02:11:57.494Z,7.74
2022-09-26T02:12:57.477Z,7.69
2022-09-26T02:13:57.483Z,7.78
2022-09-26T02:14:57.439Z,7.77
2022-09-26T02:15:57.468Z,7.69
2022-09-26T02:16:57.454Z,7.72
2022-09-26T02:17:57.423Z,7.78
2022-09-26T02:18:57.447Z,7.72
2022-09-26T02:19:57.395Z,7.78
2022-09-26T02:20:57.387Z,7.74
2022-09-26T02:21:57.404Z,7.78
2022-09-26T02:22:57.375Z,7.82
2022-09-26T02:23:57.376Z,7.87
2022-09-26T02:24:57.365Z,7.79
2022-09-26T02:25:57.341Z,7.82
2022-09-26T02:26:57.338Z,7.82
2022-09-26T02:27:57.313Z,7.81
2022-09-26T02:28:57.329Z,7.84
2022-09-26T02:29:57.306Z,7.78
2022-09-26T02:30:57.278Z,7.81
2022-09-26T02:31:57.487Z,7.84
2022-09-26T02:32:57.363Z,7.85
2022-09-26T02:33:57.276Z,7.85
2022-09-26T02:34:57.259Z,7.93
2022-09-26T02:35:57.232Z,7.92
2022-09-26T02:36:57.225Z,7.90
2022-09-26T02:37:57.224Z,7.97
2022-09-26T02:38:57.210Z,7.96
2022-09-26T02:39:57.228Z,7.87
2022-09-26T02:40:57.279Z,7.93
2022-09-26T02:41:57.246Z,7.84
2022-09-26T02:42:57.160Z,7.84
2022-09-26T02:43:57.170Z,7.85
2022-09-26T02:44:57.146Z,7.81
2022-09-26T02:45:57.225Z,7.85
2022-09-26T02:46:57.121Z,7.84
2022-09-26T02:47:57.113Z,7.84
2022-09-26T02:48:57.119Z,7.79
2022-09-26T02:49:57.094Z,7.84
2022-09-26T02:50:57.074Z,7.79
2022-09-26T02:51:57.064Z,7.85
2022-09-26T02:52:57.076Z,7.84
2022-09-26T02:53:57.083Z,7.74
2022-09-26T02:54:57.043Z,7.85
2022-09-26T02:55:57.039Z,7.92
2022-09-26T02:56:57.020Z,7.81
2022-09-26T02:57:57.017Z,7.85
2022-09-26T02:58:57.023Z,7.79
2022-09-26T02:59:56.990Z,7.85
2022-09-26T03:00:57.023Z,7.90
2022-09-26T03:01:56.979Z,7.93
2022-09-26T03:02:56.961Z,7.94
2022-09-26T03:03:57.048Z,7.97
2022-09-26T03:04:57.017Z,7.96
2022-09-26T03:05:56.935Z,7.89
2022-09-26T03:06:56.922Z,7.97
2022-09-26T03:07:56.924Z,7.97
2022-09-26T03:08:56.917Z,7.99
2022-09-26T03:09:56.889Z,7.93
2022-09-26T03:10:56.868Z,7.99
2022-09-26T03:11:56.872Z,7.93
2022-09-26T03:12:56.864Z,7.96
2022-09-26T03:13:56.930Z,7.90
2022-09-26T03:14:58.793Z,7.94
2022-09-26T03:15:57.863Z,7.89
2022-09-26T03:16:56.882Z,7.87
2022-09-26T03:17:56.808Z,7.96
2022-09-26T03:18:56.808Z,7.92
2022-09-26T03:19:56.865Z,7.81
2022-09-26T03:20:56.767Z,7.87
2022-09-26T03:21:56.770Z,7.79
2022-09-26T03:22:56.767Z,7.85
2022-09-26T03:23:56.761Z,7.84
2022-09-26T03:24:56.741Z,7.84
2022-09-26T03:25:56.728Z,7.67
2022-09-26T03:26:56.713Z,7.82
2022-09-26T03:27:56.710Z,7.78
2022-09-26T03:28:56.717Z,7.79
2022-09-26T03:29:56.748Z,7.74
2022-09-26T03:30:56.677Z,7.79
2022-09-26T03:31:56.738Z,7.77
2022-09-26T03:32:56.666Z,7.78
2022-09-26T03:33:56.671Z,7.74
2022-09-26T03:34:56.625Z,7.71
2022-09-26T03:35:56.701Z,7.75
2022-09-26T03:36:56.604Z,7.74
2022-09-26T03:37:56.607Z,7.84
2022-09-26T03:38:56.622Z,7.72
2022-09-26T03:39:56.589Z,7.78
2022-09-26T03:40:56.640Z,7.74
2022-09-26T03:41:56.579Z,7.71
2022-09-26T03:42:56.558Z,7.72
2022-09-26T03:43:56.601Z,7.85
2022-09-26T03:44:56.538Z,7.81
2022-09-26T03:45:56.559Z,7.69
2022-09-26T03:46:56.515Z,7.62
2022-09-26T03:47:56.502Z,7.71
2022-09-26T03:48:56.515Z,7.62
2022-09-26T03:49:56.483Z,7.75
2022-09-26T03:50:56.493Z,7.71
2022-09-26T03:51:56.461Z,7.62
2022-09-26T03:52:56.460Z,7.75
2022-09-26T03:53:56.450Z,7.71
2022-09-26T03:54:56.430Z,7.71
2022-09-26T03:55:56.418Z,7.79
2022-09-26T03:56:56.411Z,7.56
2022-09-26T03:57:56.394Z,7.60
2022-09-26T03:58:56.405Z,7.75
2022-09-26T03:59:56.379Z,7.81
2022-09-26T04:00:56.407Z,7.75
2022-09-26T04:01:56.376Z,7.79
2022-09-26T04:02:56.354Z,7.81
2022-09-26T04:03:56.354Z,7.79
2022-09-26T04:04:56.359Z,7.79
2022-09-26T04:05:56.309Z,7.72
2022-09-26T04:06:56.311Z,7.79
2022-09-26T04:07:56.300Z,7.78
2022-09-26T04:08:56.312Z,7.77
2022-09-26T04:09:56.271Z,7.84
2022-09-26T04:10:56.273Z,7.82
2022-09-26T04:11:56.259Z,7.75
2022-09-26T04:12:56.249Z,7.81
2022-09-26T04:13:56.273Z,7.81
2022-09-26T04:14:56.226Z,7.74
2022-09-26T04:15:56.297Z,7.69
2022-09-26T04:16:56.215Z,7.81
2022-09-26T04:17:56.202Z,7.71
2022-09-26T04:18:56.216Z,7.75
2022-09-26T04:19:56.180Z,7.75
2022-09-26T04:20:56.171Z,7.72
2022-09-26T04:21:56.148Z,7.78
2022-09-26T04:22:56.152Z,7.63
2022-09-26T04:23:56.156Z,7.78
2022-09-26T04:24:56.132Z,7.78
2022-09-26T04:25:56.120Z,7.71
2022-09-26T04:26:56.105Z,7.77
2022-09-26T04:27:56.095Z,7.77
2022-09-26T04:28:56.121Z,7.72
2022-09-26T04:29:56.065Z,7.72
2022-09-26T04:30:56.075Z,7.81
2022-09-26T04:31:56.106Z,7.77
2022-09-26T04:32:56.041Z,7.75
2022-09-26T04:33:56.053Z,7.75
2022-09-26T04:34:56.053Z,7.75
2022-09-26T04:35:56.016Z,7.67
2022-09-26T04:36:56.005Z,7.71
2022-09-26T04:37:55.994Z,7.78
2022-09-26T04:38:56.004Z,7.77
2022-09-26T04:39:55.971Z,7.75
2022-09-26T04:40:56.059Z,7.79
2022-09-26T04:41:55.945Z,7.69
2022-09-26T04:42:55.949Z,7.74
2022-09-26T04:43:55.954Z,7.85
2022-09-26T04:44:55.920Z,7.82
2022-09-26T04:45:55.967Z,7.84
2022-09-26T04:46:55.897Z,7.78
2022-09-26T04:47:55.894Z,7.79
2022-09-26T04:48:55.924Z,7.92
2022-09-26T04:49:55.854Z,7.89
2022-09-26T04:50:55.860Z,7.89
2022-09-26T04:51:55.849Z,7.85
2022-09-26T04:52:55.834Z,7.96
2022-09-26T04:53:55.841Z,7.84
2022-09-26T04:54:55.806Z,7.97
2022-09-26T04:55:55.806Z,7.96
2022-09-26T04:56:55.796Z,7.85
2022-09-26T04:57:55.782Z,7.92
2022-09-26T04:58:55.792Z,7.87
2022-09-26T04:59:55.763Z,7.92
2022-09-26T05:00:55.836Z,7.96
2022-09-26T05:01:55.776Z,7.92
2022-09-26T05:02:55.728Z,7.92
2022-09-26T05:03:55.739Z,7.97
2022-09-26T05:04:55.704Z,7.93
2022-09-26T05:05:55.686Z,7.89
2022-09-26T05:06:55.690Z,8.02
2022-09-26T05:07:55.690Z,8.03
2022-09-26T05:08:55.680Z,7.97
2022-09-26T05:11:16.799Z,7.93
2022-09-26T05:12:16.796Z,8.03
2022-09-26T05:13:16.797Z,8.00
2022-09-26T05:14:17.892Z,8.11
2022-09-26T05:15:17.886Z,8.10
2022-09-26T05:16:17.925Z,8.04
2022-09-26T05:17:17.863Z,8.07
2022-09-26T05:18:17.866Z,8.02
2022-09-26T05:19:17.838Z,8.11
2022-09-26T05:20:17.834Z,8.08
2022-09-26T05:21:17.817Z,8.10
2022-09-26T05:22:17.806Z,8.18
2022-09-26T05:23:17.811Z,8.17
2022-09-26T05:24:17.784Z,8.08
2022-09-26T05:25:17.769Z,8.10
2022-09-26T05:26:17.759Z,8.14
2022-09-26T05:27:17.746Z,8.12
2022-09-26T05:28:17.776Z,8.36
2022-09-26T05:29:17.847Z,8.15
2022-09-26T05:30:17.746Z,8.15
2022-09-26T05:31:17.780Z,8.15
2022-09-26T05:32:17.706Z,8.21
2022-09-26T05:33:17.709Z,8.15
2022-09-26T05:34:20.102Z,8.22
2022-09-26T05:35:18.664Z,8.25
2022-09-26T05:36:17.658Z,8.29
2022-09-26T05:37:17.654Z,8.28
2022-09-26T05:38:17.663Z,8.21
2022-09-26T05:39:17.635Z,8.21
2022-09-26T05:40:17.661Z,8.20
2022-09-26T05:41:17.612Z,8.29
2022-09-26T05:42:17.600Z,8.30
2022-09-26T05:43:17.599Z,8.15
2022-09-26T05:44:17.611Z,8.25
2022-09-26T05:45:17.578Z,8.36
2022-09-26T05:46:17.633Z,8.40
2022-09-26T05:47:17.534Z,8.35
2022-09-26T05:48:17.561Z,8.29
2022-09-26T05:49:17.529Z,8.30
2022-09-26T05:50:17.561Z,8.40
2022-09-26T05:51:17.514Z,8.47
2022-09-26T05:52:17.508Z,8.42
2022-09-26T05:53:17.501Z,8.42
2022-09-26T05:54:17.483Z,8.42
2022-09-26T05:55:17.480Z,8.45
2022-09-26T05:56:19.031Z,8.54
2022-09-26T05:57:18.457Z,8.42
2022-09-26T05:58:17.496Z,8.50
2022-09-26T05:59:17.426Z,8.53
2022-09-26T06:00:17.439Z,8.54
2022-09-26T06:01:17.472Z,8.62
2022-09-26T06:02:20.868Z,8.53
2022-09-26T06:03:18.412Z,8.63
2022-09-26T06:04:17.382Z,8.58
2022-09-26T06:05:17.368Z,8.55
2022-09-26T06:06:17.363Z,8.55
2022-09-26T06:07:17.375Z,8.58
2022-09-26T06:08:17.467Z,8.58
2022-09-26T06:09:17.354Z,8.66
2022-09-26T06:10:17.319Z,8.60
2022-09-26T06:11:17.307Z,8.65
2022-09-26T06:12:17.304Z,8.69
2022-09-26T06:13:17.313Z,8.69
2022-09-26T06:14:17.282Z,8.76
2022-09-26T06:15:17.352Z,8.81
2022-09-26T06:16:17.352Z,8.71
2022-09-26T06:17:17.289Z,8.76
2022-09-26T06:18:17.267Z,8.72
2022-09-26T06:19:22.055Z,8.83
2022-09-26T06:20:17.244Z,8.81
2022-09-26T06:21:17.218Z,8.97
2022-09-26T06:22:17.201Z,8.91
2022-09-26T06:23:17.201Z,9.02
2022-09-26T06:24:17.183Z,9.01
2022-09-26T06:25:17.164Z,9.15
2022-09-26T06:26:18.171Z,9.02
2022-09-26T06:27:17.147Z,9.10
2022-09-26T06:28:17.162Z,9.18
2022-09-26T06:29:17.138Z,9.23
2022-09-26T06:30:17.120Z,9.30
2022-09-26T06:31:17.263Z,9.21
2022-09-26T06:32:17.104Z,9.21
2022-09-26T06:33:17.103Z,9.16
2022-09-26T06:34:17.078Z,9.27
2022-09-26T06:35:17.091Z,9.34
2022-09-26T06:36:17.064Z,9.20
2022-09-26T06:37:17.054Z,9.28
2022-09-26T06:38:17.070Z,9.34
2022-09-26T06:39:17.190Z,9.34
2022-09-26T06:40:17.084Z,9.31
2022-09-26T06:41:17.023Z,9.40
2022-09-26T06:42:17.001Z,9.39
2022-09-26T06:43:16.991Z,9.49
2022-09-26T06:44:17.004Z,9.49
2022-09-26T06:45:16.980Z,9.53
2022-09-26T06:46:17.029Z,9.52
2022-09-26T06:47:17.094Z,9.57
2022-09-26T06:48:21.028Z,9.50
2022-09-26T06:49:17.949Z,9.48
2022-09-26T06:50:16.931Z,9.50
2022-09-26T06:51:16.912Z,9.57
2022-09-26T06:52:16.909Z,9.57
2022-09-26T06:53:16.894Z,9.56
2022-09-26T06:54:16.901Z,9.46
2022-09-26T06:55:16.872Z,9.48
2022-09-26T06:56:16.861Z,9.57
2022-09-26T06:57:16.847Z,9.57
2022-09-26T06:58:16.857Z,9.63
2022-09-26T06:59:16.910Z,9.52
2022-09-26T07:00:16.820Z,9.58
2022-09-26T07:01:17.043Z,9.58
2022-09-26T07:02:16.840Z,9.49
2022-09-26T07:03:16.781Z,9.61
2022-09-26T07:04:16.803Z,9.52
2022-09-26T07:05:16.773Z,9.53
2022-09-26T07:06:16.758Z,9.66
2022-09-26T07:07:16.747Z,9.68
2022-09-26T07:08:16.742Z,9.70
2022-09-26T07:09:17.068Z,9.61
2022-09-26T07:10:16.753Z,9.58
2022-09-26T07:11:35.130Z,9.60
2022-09-26T07:12:18.710Z,9.68
2022-09-26T07:13:16.693Z,9.63
2022-09-26T07:14:16.702Z,9.81
2022-09-26T07:15:16.671Z,9.68
2022-09-26T07:16:16.741Z,9.75
2022-09-26T07:17:16.648Z,9.96
2022-09-26T07:18:16.631Z,9.89
2022-09-26T07:19:16.651Z,9.97
2022-09-26T07:20:16.623Z,9.99
2022-09-26T07:21:16.615Z,10.00
2022-09-26T07:22:16.606Z,10.01
2022-09-26T07:23:16.597Z,9.93
2022-09-26T07:24:16.604Z,9.93
2022-09-26T07:25:16.582Z,9.93
2022-09-26T07:26:16.630Z,9.89
2022-09-26T07:27:16.556Z,9.91
2022-09-26T07:28:16.550Z,9.94
2022-09-26T07:29:16.570Z,9.94
2022-09-26T07:30:16.530Z,9.91
2022-09-26T07:31:16.572Z,9.96
2022-09-26T07:32:16.513Z,10.01
2022-09-26T07:33:16.505Z,10.04
2022-09-26T07:34:18.581Z,9.99
2022-09-26T07:35:16.481Z,9.99
2022-09-26T07:36:16.474Z,10.03
2022-09-26T07:37:16.460Z,10.03
2022-09-26T07:38:16.461Z,10.03
2022-09-26T07:39:16.668Z,10.14
2022-09-26T07:40:16.463Z,10.24
2022-09-26T07:41:16.413Z,10.18
2022-09-26T07:42:16.406Z,10.10
2022-09-26T07:43:20.049Z,10.15
2022-09-26T07:45:27.957Z,10.32
2022-09-26T07:46:18.430Z,10.28
2022-09-26T07:47:16.472Z,10.33
2022-09-26T07:48:16.352Z,10.33
2022-09-26T07:49:18.062Z,10.42
2022-09-26T07:50:16.335Z,10.36
2022-09-26T07:51:16.383Z,10.44
2022-09-26T07:52:16.322Z,10.43
2022-09-26T07:53:16.307Z,10.43
2022-09-26T07:54:16.382Z,10.55
2022-09-26T07:55:16.276Z,10.59
2022-09-26T07:56:16.290Z,10.56
2022-09-26T07:57:16.274Z,10.63
2022-09-26T07:58:16.241Z,10.53
2022-09-26T07:59:16.259Z,10.60
2022-09-26T08:00:16.226Z,10.66
2022-09-26T08:01:16.261Z,10.74
2022-09-26T08:02:16.273Z,10.63
2022-09-26T08:03:16.297Z,10.76
2022-09-26T08:04:16.272Z,10.81
2022-09-26T08:05:16.180Z,10.76
2022-09-26T08:06:16.167Z,10.76
2022-09-26T08:07:16.153Z,10.83
2022-09-26T08:08:16.148Z,10.81
2022-09-26T08:09:16.307Z,10.88
2022-09-26T08:10:16.108Z,10.99
2022-09-26T08:11:16.131Z,11.09
2022-09-26T08:12:16.109Z,11.02
2022-09-26T08:13:16.094Z,11.11
2022-09-26T08:14:16.204Z,11.19
2022-09-26T08:15:16.066Z,11.11
2022-09-26T08:16:16.101Z,11.16
2022-09-26T08:17:16.041Z,11.16
2022-09-26T08:18:16.043Z,11.28
2022-09-26T08:19:16.120Z,11.27
2022-09-26T08:20:16.027Z,11.32
2022-09-26T08:21:16.004Z,11.34
2022-09-26T08:22:16.024Z,11.39
2022-09-26T08:23:15.990Z,11.39
2022-09-26T08:24:16.203Z,11.41
2022-09-26T08:25:15.981Z,11.54
2022-09-26T08:26:15.966Z,11.56
2022-09-26T08:27:15.953Z,11.56
2022-09-26T08:28:15.943Z,11.56
2022-09-26T08:29:15.943Z,11.57
2022-09-26T08:30:15.922Z,11.47
2022-09-26T08:31:15.962Z,11.49
2022-09-26T08:32:15.906Z,11.53
2022-09-26T08:33:15.885Z,11.56
2022-09-26T08:34:16.087Z,11.59
2022-09-26T08:35:15.936Z,11.47
2022-09-26T08:36:15.883Z,11.70
2022-09-26T08:37:15.869Z,11.64
2022-09-26T08:38:15.847Z,11.57
2022-09-26T08:39:16.038Z,11.56
2022-09-26T08:40:15.929Z,11.59
2022-09-26T08:41:15.795Z,11.67
2022-09-26T08:42:15.796Z,11.59
2022-09-26T08:43:15.787Z,11.65
2022-09-26T08:44:15.887Z,11.59
2022-09-26T08:45:15.757Z,11.68
2022-09-26T08:46:15.788Z,11.65
2022-09-26T08:47:15.738Z,11.68
2022-09-26T08:48:15.729Z,11.67
2022-09-26T08:49:15.742Z,11.65
2022-09-26T08:50:15.715Z,11.77
2022-09-26T08:51:15.698Z,11.78
2022-09-26T08:52:15.691Z,11.74
2022-09-26T08:53:15.674Z,11.74
2022-09-26T08:54:15.763Z,11.74
2022-09-26T08:55:15.663Z,11.86
2022-09-26T08:56:15.647Z,11.96
2022-09-26T08:57:15.631Z,11.89
2022-09-26T08:58:15.622Z,12.02
2022-09-26T08:59:15.636Z,12.13
2022-09-26T09:00:15.753Z,12.19
2022-09-26T09:01:15.658Z,12.19
2022-09-26T09:02:15.676Z,12.12
2022-09-26T09:03:15.685Z,12.09
2022-09-26T09:04:15.764Z,12.13
2022-09-26T09:05:15.551Z,12.33
2022-09-26T09:06:15.536Z,12.19
2022-09-26T09:07:15.543Z,12.19
2022-09-26T09:08:15.530Z,12.19
2022-09-26T09:09:15.534Z,12.33
2022-09-26T09:10:15.509Z,12.39
2022-09-26T09:11:15.499Z,12.37
2022-09-26T09:12:15.482Z,12.38
2022-09-26T09:13:15.477Z,12.39
2022-09-26T09:14:15.615Z,12.38
2022-09-26T09:15:25.131Z,12.39
2022-09-26T09:16:17.537Z,12.37
2022-09-26T09:17:15.434Z,12.33
2022-09-26T09:18:15.418Z,12.34
2022-09-26T09:19:15.432Z,12.33
2022-09-26T09:20:15.408Z,12.34
2022-09-26T09:21:15.404Z,12.48
2022-09-26T09:22:15.378Z,12.54
2022-09-26T09:23:15.373Z,12.56
2022-09-26T09:24:15.505Z,12.66
2022-09-26T09:25:15.340Z,12.70
2022-09-26T09:28:17.320Z,12.89
2022-09-26T09:29:19.217Z,12.82
2022-09-26T09:30:17.107Z,12.92
2022-09-26T09:31:16.393Z,13.07
2022-09-26T09:32:15.283Z,13.15
2022-09-26T09:33:15.300Z,13.27
2022-09-26T09:34:15.502Z,13.18
2022-09-26T09:35:15.250Z,13.22
2022-09-26T09:36:15.245Z,13.22
2022-09-26T09:37:15.234Z,13.09
2022-09-26T09:38:15.220Z,13.17
2022-09-26T09:39:15.213Z,13.32
2022-09-26T09:40:15.265Z,13.11
2022-09-26T09:41:15.178Z,13.29
2022-09-26T09:42:15.175Z,13.43
2022-09-26T09:43:15.189Z,13.52
2022-09-26T09:44:15.289Z,13.54
2022-09-26T09:45:15.163Z,13.44
2022-09-26T09:46:16.183Z,13.54
2022-09-26T09:47:15.166Z,13.77
2022-09-26T09:48:15.117Z,13.74
2022-09-26T09:49:15.100Z,13.73
2022-09-26T09:50:15.120Z,13.79
2022-09-26T09:51:15.084Z,13.79
2022-09-26T09:52:15.083Z,13.81
2022-09-26T09:53:15.068Z,13.59
2022-09-26T09:54:15.142Z,13.56
2022-09-26T09:55:15.067Z,13.46
2022-09-26T09:56:15.045Z,13.58
2022-09-26T09:57:15.017Z,13.58
2022-09-26T09:58:15.017Z,13.59
2022-09-26T09:59:15.018Z,13.56
2022-09-26T10:00:15.019Z,13.74
2022-09-26T10:01:14.994Z,13.67
2022-09-26T10:02:14.967Z,13.69
2022-09-26T10:03:16.047Z,13.80
2022-09-26T10:04:15.079Z,13.83
2022-09-26T10:05:14.966Z,14.01
2022-09-26T10:06:45.861Z,13.95
2022-09-26T10:07:15.933Z,14.13
2022-09-26T10:08:14.919Z,14.34
2022-09-26T10:09:35.928Z,14.42
2022-09-26T10:10:15.927Z,14.46
2022-09-26T10:11:14.893Z,14.42
2022-09-26T10:12:14.892Z,14.28
2022-09-26T10:13:14.860Z,14.24
2022-09-26T10:14:14.920Z,13.99
2022-09-26T10:15:14.864Z,13.96
2022-09-26T10:16:14.964Z,14.07
2022-09-26T10:17:14.828Z,14.16
2022-09-26T10:18:30.053Z,14.31
2022-09-26T10:19:16.833Z,14.47
2022-09-26T10:20:14.897Z,14.56
2022-09-26T10:21:14.798Z,14.57
2022-09-26T10:22:14.773Z,14.54
2022-09-26T10:23:14.769Z,14.72
2022-09-26T10:24:14.884Z,14.94
2022-09-26T10:25:14.769Z,14.83
2022-09-26T10:26:14.738Z,14.84
2022-09-26T10:27:14.733Z,14.88
2022-09-26T10:28:14.712Z,15.09
2022-09-26T10:29:14.701Z,14.98
2022-09-26T10:30:14.800Z,15.05
2022-09-26T10:31:14.783Z,15.19
2022-09-26T10:32:14.676Z,15.13
2022-09-26T10:33:14.658Z,15.09
2022-09-26T10:34:14.696Z,15.05
2022-09-26T10:35:19.317Z,15.15
2022-09-26T10:36:16.646Z,14.88
2022-09-26T10:37:14.624Z,14.88
2022-09-26T10:38:14.618Z,14.84
2022-09-26T10:39:14.592Z,15.05
2022-09-26T10:40:15.773Z,14.99
2022-09-26T10:41:14.582Z,15.13
2022-09-26T10:42:14.573Z,15.08
2022-09-26T10:43:14.566Z,15.20
2022-09-26T10:44:14.664Z,15.15
2022-09-26T10:45:14.566Z,15.30
2022-09-26T10:46:14.611Z,15.39
2022-09-26T10:47:14.528Z,15.49
2022-09-26T10:48:14.521Z,15.56
2022-09-26T10:49:14.499Z,15.56
2022-09-26T10:50:14.588Z,15.74
2022-09-26T10:51:14.492Z,15.76
2022-09-26T10:52:18.356Z,15.72
2022-09-26T10:53:15.481Z,15.78
2022-09-26T10:54:14.565Z,15.70
2022-09-26T10:55:14.469Z,15.60
2022-09-26T10:56:14.444Z,15.57
2022-09-26T10:57:14.425Z,15.63
2022-09-26T10:58:15.411Z,15.74
2022-09-26T10:59:14.405Z,15.63
2022-09-26T11:00:14.553Z,15.67
2022-09-26T11:01:14.413Z,15.64
2022-09-26T11:02:14.494Z,15.67
2022-09-26T11:03:14.414Z,15.76
2022-09-26T11:04:14.495Z,15.75
2022-09-26T11:05:14.367Z,15.61
2022-09-26T11:06:14.330Z,15.46
2022-09-26T11:07:14.319Z,15.33
2022-09-26T11:08:14.312Z,15.20
2022-09-26T11:09:14.295Z,15.41
2022-09-26T11:10:19.161Z,15.39
2022-09-26T11:11:46.679Z,15.38
2022-09-26T11:12:14.271Z,15.38
2022-09-26T11:13:14.258Z,15.28
2022-09-26T11:14:14.333Z,15.35
2022-09-26T11:15:14.263Z,15.42
2022-09-26T11:16:14.283Z,15.36
2022-09-26T11:17:14.211Z,15.43
2022-09-26T11:18:14.207Z,15.52
2022-09-26T11:19:14.337Z,15.51
2022-09-26T11:20:14.209Z,15.38
2022-09-26T11:21:27.819Z,15.24
2022-09-26T11:22:16.179Z,15.26
2022-09-26T11:23:14.169Z,15.20
2022-09-26T11:24:14.326Z,15.28
2022-09-26T11:25:14.229Z,15.24
2022-09-26T11:26:14.131Z,15.27
2022-09-26T11:27:14.145Z,15.36
2022-09-26T11:28:14.097Z,15.41
2022-09-26T11:29:14.195Z,15.36
2022-09-26T11:30:14.112Z,15.33
2022-09-26T11:31:14.124Z,15.35
2022-09-26T11:32:14.057Z,15.39
2022-09-26T11:33:14.057Z,15.42
2022-09-26T11:34:14.200Z,15.36
2022-09-26T11:35:14.052Z,15.30
2022-09-26T11:36:14.014Z,15.31
2022-09-26T11:37:14.012Z,15.35
2022-09-26T11:38:14.008Z,15.24
2022-09-26T11:39:14.126Z,15.20
2022-09-26T11:40:14.084Z,15.28
2022-09-26T11:41:13.982Z,15.42
2022-09-26T11:42:13.961Z,15.30
2022-09-26T11:43:13.958Z,15.41
2022-09-26T11:44:13.958Z,15.49
2022-09-26T11:45:13.947Z,15.48
2022-09-26T11:46:14.119Z,15.57
2022-09-26T11:47:13.918Z,15.64
2022-09-26T11:48:13.894Z,15.39
2022-09-26T11:49:13.901Z,15.41
2022-09-26T11:50:13.902Z,15.45
2022-09-26T11:51:13.882Z,15.41
2022-09-26T11:52:13.862Z,15.41
2022-09-26T11:53:13.858Z,15.42
2022-09-26T11:54:13.998Z,15.46
2022-09-26T11:55:13.861Z,15.43
2022-09-26T11:56:13.840Z,15.45
2022-09-26T11:57:13.819Z,15.39
2022-09-26T11:58:13.802Z,15.31
2022-09-26T11:59:13.792Z,15.38
2022-09-26T12:00:13.800Z,15.23
2022-09-26T12:01:13.789Z,15.26
2022-09-26T12:02:13.809Z,15.17
2022-09-26T12:03:13.982Z,15.12
2022-09-26T12:04:13.900Z,15.06
2022-09-26T12:05:13.744Z,15.02
2022-09-26T12:06:14.739Z,14.86
2022-09-26T12:07:13.713Z,14.84
2022-09-26T12:08:13.705Z,14.81
2022-09-26T12:09:13.696Z,14.84
2022-09-26T12:10:13.704Z,14.87
2022-09-26T12:11:13.675Z,14.87
2022-09-26T12:12:13.670Z,14.83
2022-09-26T12:13:13.647Z,14.83
2022-09-26T12:14:13.736Z,14.83
2022-09-26T12:15:13.711Z,14.95
2022-09-26T12:16:13.690Z,14.81
2022-09-26T12:17:13.618Z,14.90
2022-09-26T12:18:13.612Z,14.74
2022-09-26T12:19:16.411Z,14.75
2022-09-26T12:20:14.601Z,14.62
2022-09-26T12:21:13.570Z,14.78
2022-09-26T12:22:13.566Z,14.75
2022-09-26T12:23:13.564Z,14.75
2022-09-26T12:24:13.550Z,14.83
2022-09-26T12:25:17.821Z,14.69
2022-09-26T12:26:15.527Z,14.65
2022-09-26T12:27:13.518Z,14.53
2022-09-26T12:28:13.503Z,14.56
2022-09-26T12:29:13.498Z,14.65
2022-09-26T12:30:13.501Z,14.71
2022-09-26T12:31:18.708Z,14.80
2022-09-26T12:32:14.455Z,14.78
2022-09-26T12:33:13.456Z,14.81
2022-09-26T12:34:13.445Z,14.94
2022-09-26T12:35:13.453Z,14.90
2022-09-26T12:36:13.410Z,14.88
2022-09-26T12:37:13.413Z,14.86
2022-09-26T12:38:13.400Z,14.95
2022-09-26T12:39:13.408Z,14.93
2022-09-26T12:40:13.470Z,15.01
2022-09-26T12:41:13.365Z,15.09
2022-09-26T12:42:13.375Z,14.94
2022-09-26T12:43:13.354Z,14.84
2022-09-26T12:44:13.348Z,14.95
2022-09-26T12:45:13.357Z,15.02
2022-09-26T12:46:13.400Z,15.02
2022-09-26T12:47:13.320Z,14.99
2022-09-26T12:48:13.308Z,14.94
2022-09-26T12:49:13.371Z,14.94
2022-09-26T12:50:13.305Z,15.01
2022-09-26T12:51:13.283Z,14.99
2022-09-26T12:52:13.270Z,14.93
2022-09-26T12:53:13.303Z,14.94
2022-09-26T12:54:13.270Z,14.83
2022-09-26T12:55:13.279Z,14.86
2022-09-26T12:56:13.313Z,14.88
2022-09-26T12:57:13.246Z,14.95
2022-09-26T12:58:13.206Z,14.86
2022-09-26T12:59:13.249Z,14.95
2022-09-26T13:00:13.198Z,14.95
2022-09-26T13:01:13.208Z,14.86
2022-09-26T13:02:13.161Z,14.83
2022-09-26T13:03:13.255Z,14.86
2022-09-26T13:04:13.138Z,14.88
2022-09-26T13:05:13.146Z,14.94
2022-09-26T13:06:13.121Z,14.98
2022-09-26T13:07:20.730Z,15.08
2022-09-26T13:08:15.093Z,15.03
2022-09-26T13:09:13.091Z,14.95
2022-09-26T13:10:13.103Z,15.01
2022-09-26T13:11:13.075Z,14.94
2022-09-26T13:12:13.065Z,14.91